Time,TemperatureF,DewpointF,PressureIn,WindDirection,WindDirectionDegrees,WindSpeedMPH,WindSpeedGustMPH,Humidity,HourlyPrecipIn,Conditions,Clouds,dailyrainin,SoftwareType,DateUTC
2013-01-10 00:02:00,56.0,55.0,29.97,ENE,73,4.0,10.0,96,0.01,,,1.28,,2013-01-10 06:02:00,
2013-01-10 00:12:00,56.0,55.0,29.97,ENE,73,4.0,10.0,96,0.01,,,1.28,,2013-01-10 06:12:00,
2013-01-10 00:22:00,56.0,55.0,29.97,East,80,3.0,7.0,96,0.01,,,1.21,,2013-01-10 06:22:00,
2013-01-10 00:32:00,57.0,56.0,29.97,ENE,64,5.0,9.0,96,0.00,,,1.14,,2013-01-10 06:32:00,
2013-01-10 00:42:00,57.0,56.0,29.97,ENE,64,5.0,9.0,96,0.00,,,1.14,,2013-01-10 06:42:00,
2013-01-10 00:52:00,57.0,56.0,29.97,East,89,3.0,9.0,97,0.00,,,1.11,,2013-01-10 06:52:00,
2013-01-10 01:02:00,57.0,56.0,29.97,SE,129,6.0,10.0,97,0.00,,,1.09,,2013-01-10 07:02:00,
2013-01-10 01:12:00,57.0,56.0,29.97,SE,129,6.0,10.0,97,0.00,,,1.09,,2013-01-10 07:12:00,
2013-01-10 01:22:00,57.0,56.0,29.96,East,87,6.0,10.0,97,0.01,,,1.06,,2013-01-10 07:22:00,
2013-01-10 01:32:00,57.0,56.0,29.95,East,90,4.0,9.0,96,0.01,,,1.03,,2013-01-10 07:32:00,
2013-01-10 01:42:00,57.0,56.0,29.95,East,90,4.0,9.0,96,0.01,,,1.03,,2013-01-10 07:42:00,
2013-01-10 01:52:00,56.0,55.0,29.94,ENE,61,5.0,12.0,97,0.01,,,1.02,,2013-01-10 07:52:00,
2013-01-10 02:01:00,56.0,55.0,29.94,ESE,112,4.0,9.0,97,0.01,,,1.00,,2013-01-10 08:01:00,
2013-01-10 02:11:00,56.0,55.0,29.94,ESE,112,4.0,9.0,97,0.01,,,1.00,,2013-01-10 08:11:00,
2013-01-10 02:22:00,56.0,55.0,29.93,ESE,102,1.0,8.0,97,0.00,,,0.98,,2013-01-10 08:22:00,
2013-01-10 02:32:00,56.0,55.0,29.94,ESE,117,5.0,9.0,97,0.00,,,0.94,,2013-01-10 08:32:00,
2013-01-10 02:42:00,56.0,55.0,29.94,ESE,117,5.0,9.0,97,0.00,,,0.94,,2013-01-10 08:42:00,
2013-01-10 02:53:00,56.0,55.0,29.95,ESE,113,1.0,6.0,97,0.01,,,0.92,,2013-01-10 08:53:00,
2013-01-10 03:02:00,56.0,55.0,29.95,ESE,115,4.0,7.0,97,0.02,,,0.93,,2013-01-10 09:02:00,
2013-01-10 03:12:00,56.0,55.0,29.95,ESE,115,4.0,7.0,97,0.02,,,0.93,,2013-01-10 09:12:00,
2013-01-10 03:22:00,57.0,56.0,29.93,ESE,117,2.0,7.0,97,0.03,,,0.93,,2013-01-10 09:22:00,
2013-01-10 03:32:00,57.0,56.0,29.92,ESE,117,1.0,3.0,97,0.03,,,0.90,,2013-01-10 09:32:00,
2013-01-10 03:42:00,57.0,56.0,29.92,ESE,117,1.0,3.0,97,0.03,,,0.90,,2013-01-10 09:42:00,
2013-01-10 03:52:00,57.0,56.0,29.92,ESE,117,2.0,3.0,97,0.02,,,0.88,,2013-01-10 09:52:00,
2013-01-10 04:02:00,57.0,56.0,29.92,ESE,117,1.0,6.0,97,0.01,,,0.86,,2013-01-10 10:02:00,
2013-01-10 04:12:00,57.0,56.0,29.92,ESE,117,1.0,6.0,97,0.01,,,0.86,,2013-01-10 10:12:00,
2013-01-10 04:22:00,57.0,56.0,29.93,SE,143,5.0,7.0,97,0.00,,,0.85,,2013-01-10 10:22:00,
2013-01-10 04:32:00,57.0,56.0,29.91,SE,143,2.0,6.0,97,0.00,,,0.84,,2013-01-10 10:32:00,
2013-01-10 04:42:00,57.0,56.0,29.91,SE,143,2.0,6.0,97,0.00,,,0.84,,2013-01-10 10:42:00,
2013-01-10 04:52:00,57.0,56.0,29.91,SE,142,2.0,6.0,97,0.00,,,0.84,,2013-01-10 10:52:00,
2013-01-10 05:02:00,57.0,56.0,29.91,SE,142,1.0,3.0,97,0.00,,,0.83,,2013-01-10 11:02:00,
2013-01-10 05:12:00,57.0,56.0,29.91,SSE,151,5.0,8.0,97,0.00,,,0.82,,2013-01-10 11:12:00,
2013-01-10 05:22:00,57.0,56.0,29.91,SSE,151,5.0,8.0,97,0.00,,,0.82,,2013-01-10 11:22:00,
2013-01-10 05:32:00,57.0,56.0,29.91,SSE,158,5.0,10.0,97,0.00,,,0.81,,2013-01-10 11:32:00,
2013-01-10 05:42:00,57.0,56.0,29.91,SSE,158,5.0,10.0,97,0.00,,,0.81,,2013-01-10 11:42:00,
2013-01-10 05:53:00,56.0,55.0,29.91,South,171,5.0,12.0,97,0.00,,,0.78,,2013-01-10 11:53:00,
2013-01-10 06:02:00,56.0,55.0,29.90,South,189,9.0,15.0,97,0.00,,,0.74,,2013-01-10 12:02:00,
2013-01-10 06:12:00,56.0,55.0,29.90,South,189,9.0,15.0,97,0.00,,,0.74,,2013-01-10 12:12:00,
2013-01-10 06:22:00,56.0,55.0,29.90,SSE,163,5.0,12.0,96,0.00,,,0.71,,2013-01-10 12:22:00,
2013-01-10 06:32:00,56.0,55.0,29.90,SSW,210,7.0,13.0,96,0.00,,,0.69,,2013-01-10 12:32:00,
2013-01-10 06:42:00,56.0,55.0,29.90,SSW,210,7.0,13.0,96,0.00,,,0.69,,2013-01-10 12:42:00,
2013-01-10 06:53:00,56.0,55.0,29.91,South,186,6.0,14.0,95,0.00,,,0.67,,2013-01-10 12:53:00,
2013-01-10 07:02:00,55.0,54.0,29.92,SSW,198,7.0,13.0,95,0.00,,,0.65,,2013-01-10 13:02:00,
2013-01-10 07:12:00,55.0,54.0,29.92,SSW,198,7.0,13.0,95,0.00,,,0.65,,2013-01-10 13:12:00,
2013-01-10 07:22:00,54.0,52.0,29.92,South,173,12.0,16.0,93,0.00,,,0.63,,2013-01-10 13:22:00,
2013-01-10 07:32:00,54.0,52.0,29.92,South,191,7.0,14.0,92,0.00,,,0.60,,2013-01-10 13:32:00,
2013-01-10 07:42:00,54.0,52.0,29.92,South,191,7.0,14.0,92,0.00,,,0.60,,2013-01-10 13:42:00,
2013-01-10 07:53:00,53.0,51.0,29.92,South,189,5.0,12.0,92,0.00,,,0.56,,2013-01-10 13:53:00,
2013-01-10 08:02:00,52.0,50.0,29.93,South,179,6.0,9.0,92,0.00,,,0.52,,2013-01-10 14:02:00,
2013-01-10 08:12:00,52.0,50.0,29.93,South,179,6.0,9.0,92,0.00,,,0.52,,2013-01-10 14:12:00,
2013-01-10 08:22:00,52.0,50.0,29.93,South,183,6.0,9.0,93,0.00,,,0.49,,2013-01-10 14:22:00,
2013-01-10 08:32:00,52.0,50.0,29.93,South,190,2.0,6.0,93,0.00,,,0.46,,2013-01-10 14:32:00,
2013-01-10 08:43:00,52.0,50.0,29.93,South,190,2.0,6.0,93,0.00,,,0.46,,2013-01-10 14:43:00,
2013-01-10 08:53:00,53.0,51.0,29.93,South,190,3.0,6.0,93,0.00,,,0.44,,2013-01-10 14:53:00,
2013-01-10 09:03:00,54.0,51.0,29.93,South,190,2.0,6.0,91,0.00,,,0.40,,2013-01-10 15:03:00,
2013-01-10 09:12:00,54.0,51.0,29.93,South,190,2.0,6.0,91,0.00,,,0.40,,2013-01-10 15:12:00,
2013-01-10 09:22:00,54.0,51.0,29.92,South,191,3.0,6.0,89,0.00,,,0.38,,2013-01-10 15:22:00,
2013-01-10 09:32:00,54.0,50.0,29.92,South,187,4.0,10.0,87,0.00,,,0.36,,2013-01-10 15:32:00,
2013-01-10 09:43:00,54.0,50.0,29.92,South,187,4.0,10.0,87,0.00,,,0.36,,2013-01-10 15:43:00,
2013-01-10 09:53:00,55.0,51.0,29.92,SSW,212,3.0,7.0,87,0.00,,,0.35,,2013-01-10 15:53:00,
2013-01-10 10:02:00,55.0,51.0,29.94,SW,221,7.0,12.0,86,0.00,,,0.34,,2013-01-10 16:02:00,
2013-01-10 10:12:00,55.0,51.0,29.94,SW,221,7.0,12.0,86,0.00,,,0.34,,2013-01-10 16:12:00,
2013-01-10 10:23:00,54.0,50.0,29.94,SW,227,5.0,10.0,85,0.00,,,0.32,,2013-01-10 16:23:00,
2013-01-10 10:33:00,54.0,50.0,29.94,WSW,243,3.0,12.0,85,0.00,,,0.30,,2013-01-10 16:33:00,
2013-01-10 10:43:00,54.0,50.0,29.94,WSW,243,3.0,12.0,85,0.00,,,0.30,,2013-01-10 16:43:00,
2013-01-10 10:53:00,53.0,48.0,29.95,SW,229,6.0,12.0,82,0.00,,,0.29,,2013-01-10 16:53:00,
2013-01-10 11:03:00,53.0,48.0,29.94,WSW,247,6.0,12.0,82,0.00,,,0.27,,2013-01-10 17:03:00,
2013-01-10 11:12:00,53.0,48.0,29.94,WSW,247,6.0,12.0,82,0.00,,,0.27,,2013-01-10 17:12:00,
2013-01-10 11:22:00,53.0,48.0,29.94,SSW,200,5.0,10.0,83,0.00,,,0.25,,2013-01-10 17:22:00,
2013-01-10 11:33:00,54.0,48.0,29.93,WSW,241,8.0,14.0,80,0.00,,,0.23,,2013-01-10 17:33:00,
2013-01-10 11:42:00,54.0,48.0,29.93,WSW,241,8.0,14.0,80,0.00,,,0.23,,2013-01-10 17:42:00,
2013-01-10 11:53:00,55.0,48.0,29.93,South,178,9.0,15.0,77,0.00,,,0.23,,2013-01-10 17:53:00,
2013-01-10 12:03:00,55.0,47.0,29.93,SSW,207,10.0,18.0,75,0.00,,,0.22,,2013-01-10 18:03:00,
2013-01-10 12:12:00,54.0,47.0,29.94,SSE,168,7.0,16.0,78,0.00,,,0.22,,2013-01-10 18:12:00,
2013-01-10 12:23:00,54.0,47.0,29.94,SSE,168,7.0,16.0,78,0.00,,,0.22,,2013-01-10 18:23:00,
2013-01-10 12:33:00,55.0,48.0,29.93,SSW,195,9.0,13.0,76,0.00,,,0.22,,2013-01-10 18:33:00,
2013-01-10 12:43:00,54.0,48.0,29.92,SSW,195,9.0,20.0,79,0.00,,,0.22,,2013-01-10 18:43:00,
2013-01-10 12:53:00,54.0,48.0,29.92,SSW,195,9.0,20.0,79,0.00,,,0.22,,2013-01-10 18:53:00,
2013-01-10 13:02:00,53.0,47.0,29.92,South,181,6.0,12.0,79,0.00,,,0.22,,2013-01-10 19:02:00,
2013-01-10 13:12:00,54.0,48.0,29.90,WSW,252,6.0,20.0,79,0.00,,,0.21,,2013-01-10 19:12:00,
2013-01-10 13:23:00,54.0,48.0,29.90,WSW,252,6.0,20.0,79,0.00,,,0.21,,2013-01-10 19:23:00,
2013-01-10 13:33:00,55.0,48.0,29.89,WSW,242,8.0,12.0,76,0.00,,,0.21,,2013-01-10 19:33:00,
2013-01-10 13:43:00,55.0,48.0,29.89,WSW,242,8.0,12.0,76,0.00,,,0.21,,2013-01-10 19:43:00,
2013-01-10 13:53:00,55.0,47.0,29.90,South,173,9.0,13.0,73,0.00,,,0.21,,2013-01-10 19:53:00,
2013-01-10 14:02:00,55.0,47.0,29.90,South,185,7.0,18.0,73,0.00,,,0.20,,2013-01-10 20:02:00,
2013-01-10 14:12:00,55.0,47.0,29.90,South,175,9.0,20.0,74,0.00,,,0.20,,2013-01-10 20:12:00,
2013-01-10 14:23:00,55.0,47.0,29.90,South,175,9.0,20.0,74,0.00,,,0.20,,2013-01-10 20:23:00,
2013-01-10 14:32:00,55.0,47.0,29.91,SSW,201,13.0,20.0,74,0.00,,,0.20,,2013-01-10 20:32:00,
2013-01-10 14:42:00,55.0,47.0,29.91,SSW,201,13.0,20.0,74,0.00,,,0.20,,2013-01-10 20:42:00,
2013-01-10 14:53:00,54.0,46.0,29.91,South,181,9.0,20.0,75,0.00,,,0.20,,2013-01-10 20:53:00,
2013-01-10 15:03:00,54.0,47.0,29.91,South,180,6.0,12.0,76,0.00,,,0.20,,2013-01-10 21:03:00,
2013-01-10 15:12:00,54.0,47.0,29.91,SSE,164,5.0,12.0,76,0.00,,,0.20,,2013-01-10 21:12:00,
2013-01-10 15:23:00,54.0,47.0,29.91,SSE,164,5.0,12.0,76,0.00,,,0.20,,2013-01-10 21:23:00,
2013-01-10 15:33:00,54.0,47.0,29.91,SSE,153,7.0,12.0,76,0.00,,,0.17,,2013-01-10 21:33:00,
2013-01-10 15:42:00,54.0,47.0,29.91,SSE,153,7.0,12.0,76,0.00,,,0.17,,2013-01-10 21:42:00,
2013-01-10 15:53:00,54.0,47.0,29.91,SSE,165,10.0,20.0,76,0.00,,,0.14,,2013-01-10 21:53:00,
2013-01-10 16:03:00,53.0,46.0,29.91,SSE,159,9.0,18.0,78,0.00,,,0.13,,2013-01-10 22:03:00,
2013-01-10 16:12:00,53.0,46.0,29.92,South,177,9.0,18.0,78,0.00,,,0.11,,2013-01-10 22:12:00,
2013-01-10 16:25:00,53.0,46.0,29.92,South,177,9.0,18.0,78,0.00,,,0.11,,2013-01-10 22:25:00,
2013-01-10 16:32:00,53.0,47.0,29.92,SE,143,8.0,13.0,79,0.00,,,0.10,,2013-01-10 22:32:00,
2013-01-10 16:43:00,53.0,47.0,29.92,SE,143,8.0,13.0,79,0.00,,,0.10,,2013-01-10 22:43:00,
2013-01-10 17:02:00,53.0,47.0,29.93,SE,139,6.0,12.0,80,0.00,,,0.08,,2013-01-10 23:02:00,
2013-01-10 17:12:00,53.0,47.0,29.93,SSE,153,9.0,15.0,79,0.00,,,0.07,,2013-01-10 23:12:00,
2013-01-10 17:22:00,53.0,47.0,29.93,SSE,153,9.0,15.0,79,0.00,,,0.07,,2013-01-10 23:22:00,
2013-01-10 17:33:00,53.0,47.0,29.93,SSE,153,7.0,13.0,79,0.00,,,0.07,,2013-01-10 23:33:00,
2013-01-10 17:43:00,53.0,47.0,29.93,SSE,153,7.0,13.0,79,0.00,,,0.07,,2013-01-10 23:43:00,
2013-01-10 17:53:00,53.0,47.0,29.93,SSE,153,7.0,13.0,79,0.00,,,0.06,,2013-01-10 23:53:00,
2013-01-10 18:02:00,53.0,47.0,29.94,SSE,159,6.0,9.0,80,0.00,,,0.06,,2013-01-11 00:02:00,
2013-01-10 18:12:00,53.0,47.0,29.94,SSE,165,4.0,9.0,80,0.00,,,0.06,,2013-01-11 00:12:00,
2013-01-10 18:23:00,53.0,47.0,29.94,SSE,165,4.0,9.0,80,0.00,,,0.06,,2013-01-11 00:23:00,
2013-01-10 18:33:00,53.0,47.0,29.94,SSE,153,5.0,10.0,81,0.00,,,0.06,,2013-01-11 00:33:00,
2013-01-10 18:42:00,53.0,47.0,29.94,SSE,153,5.0,10.0,81,0.00,,,0.06,,2013-01-11 00:42:00,
2013-01-10 18:53:00,53.0,47.0,29.94,SSE,158,5.0,7.0,81,0.00,,,0.06,,2013-01-11 00:53:00,
2013-01-10 19:03:00,52.0,47.0,29.93,SSE,161,4.0,7.0,82,0.00,,,0.06,,2013-01-11 01:03:00,
2013-01-10 19:12:00,52.0,47.0,29.93,SSE,161,2.0,7.0,83,0.00,,,0.06,,2013-01-11 01:12:00,
2013-01-10 19:22:00,52.0,47.0,29.93,SSE,161,2.0,7.0,83,0.00,,,0.06,,2013-01-11 01:22:00,
2013-01-10 19:33:00,51.0,46.0,29.93,SSE,161,3.0,6.0,84,0.00,,,0.06,,2013-01-11 01:33:00,
2013-01-10 19:43:00,51.0,46.0,29.93,SSE,161,3.0,6.0,84,0.00,,,0.06,,2013-01-11 01:43:00,
2013-01-10 19:53:00,51.0,47.0,29.93,SSE,161,5.0,7.0,85,0.00,,,0.06,,2013-01-11 01:53:00,
2013-01-10 20:02:00,50.0,46.0,29.93,SSE,158,4.0,9.0,86,0.00,,,0.06,,2013-01-11 02:02:00,
2013-01-10 20:12:00,50.0,46.0,29.93,SSE,155,5.0,7.0,86,0.00,,,0.06,,2013-01-11 02:12:00,
2013-01-10 20:23:00,50.0,46.0,29.93,SSE,155,5.0,7.0,86,0.00,,,0.06,,2013-01-11 02:23:00,
2013-01-10 20:33:00,50.0,46.0,29.94,SSE,155,5.0,8.0,86,0.00,,,0.06,,2013-01-11 02:33:00,
2013-01-10 20:43:00,50.0,46.0,29.94,SSE,155,5.0,8.0,86,0.00,,,0.06,,2013-01-11 02:43:00,
2013-01-10 20:54:00,50.0,46.0,29.95,SSE,154,3.0,8.0,87,0.00,,,0.06,,2013-01-11 02:54:00,
2013-01-10 21:02:00,50.0,46.0,29.95,SSE,155,5.0,14.0,87,0.00,,,0.06,,2013-01-11 03:02:00,
2013-01-10 21:12:00,50.0,46.0,29.94,SE,140,7.0,12.0,86,0.00,,,0.06,,2013-01-11 03:12:00,
2013-01-10 21:23:00,50.0,46.0,29.94,SE,140,7.0,12.0,86,0.00,,,0.06,,2013-01-11 03:23:00,
2013-01-10 21:33:00,49.0,45.0,29.93,SE,136,6.0,12.0,87,0.00,,,0.05,,2013-01-11 03:33:00,
2013-01-10 21:42:00,49.0,45.0,29.93,SE,136,6.0,12.0,87,0.00,,,0.05,,2013-01-11 03:42:00,
2013-01-10 21:53:00,49.0,45.0,29.93,SE,145,5.0,10.0,87,0.00,,,0.05,,2013-01-11 03:53:00,
2013-01-10 22:02:00,50.0,46.0,29.93,SSE,163,6.0,12.0,87,0.00,,,0.05,,2013-01-11 04:02:00,
2013-01-10 22:12:00,50.0,46.0,29.93,SSE,156,8.0,12.0,86,0.00,,,0.05,,2013-01-11 04:12:00,
2013-01-10 22:22:00,50.0,46.0,29.93,SSE,156,8.0,12.0,86,0.00,,,0.05,,2013-01-11 04:22:00,
2013-01-10 22:33:00,50.0,46.0,29.93,South,179,7.0,12.0,85,0.00,,,0.05,,2013-01-11 04:33:00,
2013-01-10 22:42:00,50.0,46.0,29.93,South,179,7.0,12.0,85,0.00,,,0.05,,2013-01-11 04:42:00,
2013-01-10 22:53:00,50.0,46.0,29.94,SSE,150,7.0,12.0,85,0.00,,,0.05,,2013-01-11 04:53:00,
2013-01-10 23:03:00,49.0,45.0,29.95,SE,142,6.0,9.0,86,0.00,,,0.05,,2013-01-11 05:03:00,
2013-01-10 23:12:00,49.0,45.0,29.95,SE,146,4.0,9.0,86,0.00,,,0.05,,2013-01-11 05:12:00,
2013-01-10 23:22:00,49.0,45.0,29.95,SE,146,4.0,9.0,86,0.00,,,0.05,,2013-01-11 05:22:00,
2013-01-10 23:33:00,49.0,45.0,29.95,SE,143,6.0,9.0,86,0.00,,,0.04,,2013-01-11 05:33:00,
2013-01-10 23:42:00,49.0,45.0,29.95,SE,143,6.0,9.0,86,0.00,,,0.04,,2013-01-11 05:42:00,
2013-01-10 23:53:00,49.0,45.0,29.94,SSE,148,6.0,10.0,86,0.00,,,0.04,,2013-01-11 05:53:00,